createdAt,value
2023-03-12T00:01:18.626Z,95439.41
2023-03-12T00:03:47.634Z,95430.75
2023-03-12T00:06:17.211Z,95437.59
2023-03-12T00:08:45.299Z,95428.53
2023-03-12T00:11:14.576Z,95441.31
2023-03-12T00:13:43.142Z,95441.47
2023-03-12T00:16:12.226Z,95437.47
2023-03-12T00:18:40.364Z,95445.47
2023-03-12T00:21:08.467Z,95443.66
2023-03-12T00:23:38.295Z,95448.69
2023-03-12T00:26:07.499Z,95445.47
2023-03-12T00:28:36.089Z,95446.91
2023-03-12T00:31:04.322Z,95452.28
2023-03-12T00:33:32.420Z,95445.63
2023-03-12T00:36:01.381Z,95449.22
2023-03-12T00:38:29.594Z,95451.66
2023-03-12T00:40:59.172Z,95446.16
2023-03-12T00:43:28.485Z,95451.81
2023-03-12T00:45:56.649Z,95446.44
2023-03-12T00:48:25.240Z,95450.22
2023-03-12T00:50:53.674Z,95456.22
2023-03-12T00:53:21.752Z,95453.63
2023-03-12T00:55:49.886Z,95451.19
2023-03-12T00:58:19.339Z,95457.78
2023-03-12T01:00:47.435Z,95463.16
2023-03-12T01:03:16.807Z,95457.16
2023-03-12T01:05:45.375Z,95451.94
2023-03-12T01:08:13.507Z,95453.72
2023-03-12T01:10:42.971Z,95456.34
2023-03-12T01:13:11.032Z,95454.72
2023-03-12T01:15:40.479Z,95452.09
2023-03-12T01:18:08.987Z,95448.88
2023-03-12T01:20:37.181Z,95452.66
2023-03-12T01:23:05.222Z,95449.59
2023-03-12T01:25:34.089Z,95465.22
2023-03-12T01:28:02.153Z,95453.00
2023-03-12T01:30:30.650Z,95449.94
2023-03-12T01:33:00.141Z,95447.97
2023-03-12T01:35:28.279Z,95451.56
2023-03-12T01:37:56.764Z,95456.94
2023-03-12T01:40:27.836Z,95450.13
2023-03-12T01:42:58.744Z,95451.75
2023-03-12T01:46:00.474Z,95447.00
2023-03-12T01:48:31.936Z,95451.22
2023-03-12T01:50:59.995Z,95447.00
2023-03-12T01:53:28.088Z,95456.34
2023-03-12T01:55:56.152Z,95452.13
2023-03-12T01:58:24.655Z,95462.53
2023-03-12T02:00:52.719Z,95455.34
2023-03-12T02:03:20.803Z,95459.56
2023-03-12T02:05:52.937Z,95451.75
2023-03-12T02:08:21.203Z,95450.75
2023-03-12T02:10:49.625Z,95447.50
2023-03-12T02:13:17.987Z,95445.72
2023-03-12T02:15:48.537Z,95437.91
2023-03-12T02:18:18.024Z,95441.41
2023-03-12T02:20:51.155Z,95445.38
2023-03-12T02:23:22.730Z,95445.00
2023-03-12T02:25:53.080Z,95433.59
2023-03-12T02:28:23.612Z,95442.41
2023-03-12T02:30:52.695Z,95450.84
2023-03-12T02:33:21.000Z,95446.00
2023-03-12T02:35:49.198Z,95447.34
2023-03-12T02:38:42.289Z,95455.34
2023-03-12T02:41:14.826Z,95458.13
2023-03-12T02:43:43.312Z,95454.88
2023-03-12T02:46:11.495Z,95461.63
2023-03-12T02:48:39.672Z,95459.66
2023-03-12T02:51:07.732Z,95462.44
2023-03-12T02:53:36.169Z,95461.63
2023-03-12T02:56:04.802Z,95469.91
2023-03-12T02:58:34.664Z,95468.00
2023-03-12T03:01:03.178Z,95470.44
2023-03-12T03:03:31.353Z,95470.25
2023-03-12T03:05:59.423Z,95470.25
2023-03-12T03:08:27.570Z,95471.41
2023-03-12T03:10:55.650Z,95470.25
2023-03-12T03:13:23.998Z,95476.44
2023-03-12T03:15:53.592Z,95488.31
2023-03-12T03:18:21.777Z,95485.06
2023-03-12T03:20:56.458Z,95484.44
2023-03-12T03:23:24.615Z,95492.59
2023-03-12T03:25:52.861Z,95493.41
2023-03-12T03:28:21.040Z,95491.16
2023-03-12T03:30:49.407Z,95491.16
2023-03-12T03:33:19.206Z,95483.63
2023-03-12T03:35:47.316Z,95490.44
2023-03-12T03:38:19.784Z,95491.25
2023-03-12T03:40:48.117Z,95487.50
2023-03-12T03:43:16.231Z,95483.44
2023-03-12T03:45:45.581Z,95489.28
2023-03-12T03:48:14.096Z,95489.81
2023-03-12T03:50:43.679Z,95491.97
2023-03-12T03:53:12.704Z,95489.97
2023-03-12T03:55:41.184Z,95486.56
2023-03-12T03:58:10.593Z,95483.78
2023-03-12T04:00:39.280Z,95481.00
2023-03-12T04:03:07.375Z,95492.25
2023-03-12T04:05:35.598Z,95479.56
2023-03-12T04:08:05.419Z,95487.22
2023-03-12T04:10:34.468Z,95487.38
2023-03-12T04:13:02.896Z,95484.78
2023-03-12T04:15:31.496Z,95487.22
2023-03-12T04:18:00.348Z,95490.63
2023-03-12T04:20:29.715Z,95499.41
2023-03-12T04:22:58.501Z,95495.19
2023-03-12T04:25:28.184Z,95496.00
2023-03-12T04:27:56.608Z,95498.16
2023-03-12T04:30:24.929Z,95496.25
2023-03-12T04:32:53.064Z,95496.88
2023-03-12T04:35:21.165Z,95489.88
2023-03-12T04:37:49.701Z,95493.47
2023-03-12T04:40:19.353Z,95498.50
2023-03-12T04:42:48.988Z,95502.75
2023-03-12T04:45:17.245Z,95501.13
2023-03-12T04:47:47.580Z,95495.28
2023-03-12T04:50:16.508Z,95502.44
2023-03-12T04:52:44.614Z,95494.47
2023-03-12T04:55:13.720Z,95502.09
2023-03-12T04:57:41.803Z,95502.19
2023-03-12T05:00:13.657Z,95502.16
2023-03-12T05:02:43.808Z,95502.75
2023-03-12T05:05:12.276Z,95498.47
2023-03-12T05:07:41.693Z,95493.69
2023-03-12T05:10:10.619Z,95495.78
2023-03-12T05:12:39.165Z,95493.59
2023-03-12T05:15:08.576Z,95488.06
2023-03-12T05:17:38.269Z,95487.34
2023-03-12T05:20:07.549Z,95483.22
2023-03-12T05:22:36.034Z,95475.84
2023-03-12T05:25:04.691Z,95487.09
2023-03-12T05:27:32.817Z,95477.25
2023-03-12T05:30:01.186Z,95475.75
2023-03-12T05:32:29.570Z,95477.63
2023-03-12T05:34:59.097Z,95464.47
2023-03-12T05:37:27.696Z,95474.00
2023-03-12T05:39:55.830Z,95478.56
2023-03-12T05:42:24.953Z,95471.09
2023-03-12T05:44:53.496Z,95475.03
2023-03-12T05:47:23.383Z,95466.09
2023-03-12T05:49:52.495Z,95475.41
2023-03-12T05:52:21.995Z,95468.91
2023-03-12T05:54:51.029Z,95480.03
2023-03-12T05:57:19.148Z,95476.13
2023-03-12T05:59:47.174Z,95472.56
2023-03-12T06:02:15.747Z,95478.28
2023-03-12T06:04:45.130Z,95478.94
2023-03-12T06:07:13.487Z,95477.81
2023-03-12T06:09:43.126Z,95473.25
2023-03-12T06:12:14.181Z,95472.53
2023-03-12T06:14:42.285Z,95472.38
2023-03-12T06:17:10.784Z,95474.66
2023-03-12T06:19:39.134Z,95479.53
2023-03-12T06:22:07.319Z,95475.16
2023-03-12T06:24:35.449Z,95484.25
2023-03-12T06:27:07.942Z,95486.88
2023-03-12T06:29:35.988Z,95485.09
2023-03-12T06:32:04.529Z,95484.53
2023-03-12T06:34:32.589Z,95484.75
2023-03-12T06:37:00.635Z,95485.00
2023-03-12T06:39:30.016Z,95485.84
2023-03-12T06:41:58.068Z,95481.69
2023-03-12T06:44:27.923Z,95487.97
2023-03-12T06:46:56.115Z,95481.38
2023-03-12T06:49:24.265Z,95485.84
2023-03-12T06:51:52.396Z,95485.47
2023-03-12T06:54:20.450Z,95483.25
2023-03-12T06:56:48.479Z,95482.84
2023-03-12T06:59:18.448Z,95488.28
2023-03-12T07:01:47.992Z,95488.72
2023-03-12T07:04:16.103Z,95486.28
2023-03-12T07:06:44.146Z,95480.66
2023-03-12T07:09:12.257Z,95478.44
2023-03-12T07:11:40.787Z,95468.59
2023-03-12T07:14:08.943Z,95471.59
2023-03-12T07:16:37.129Z,95467.16
2023-03-12T07:19:06.563Z,95466.91
2023-03-12T07:21:34.619Z,95470.72
2023-03-12T07:24:06.869Z,95458.38
2023-03-12T07:26:36.252Z,95456.97
2023-03-12T07:29:04.810Z,95457.13
2023-03-12T07:31:32.945Z,95458.16
2023-03-12T07:34:03.146Z,95450.88
2023-03-12T07:36:33.572Z,95447.22
2023-03-12T07:39:02.253Z,95445.75
2023-03-12T07:41:30.335Z,95451.56
2023-03-12T07:43:58.438Z,95447.31
2023-03-12T07:46:26.546Z,95445.06
2023-03-12T07:48:55.179Z,95448.03
2023-03-12T07:51:23.344Z,95443.34
2023-03-12T07:53:53.055Z,95449.34
2023-03-12T07:56:21.206Z,95449.75
2023-03-12T07:58:49.545Z,95434.94
2023-03-12T08:01:17.895Z,95436.56
2023-03-12T08:03:46.169Z,95433.66
2023-03-12T08:06:14.399Z,95441.53
2023-03-12T08:08:42.812Z,95435.56
2023-03-12T08:11:12.313Z,95447.69
2023-03-12T08:13:40.395Z,95449.09
2023-03-12T08:16:09.602Z,95452.25
2023-03-12T08:18:37.734Z,95440.25
2023-03-12T08:21:06.740Z,95444.41
2023-03-12T08:23:35.703Z,95448.38
2023-03-12T08:26:03.744Z,95445.63
2023-03-12T08:28:33.208Z,95445.66
2023-03-12T08:31:02.430Z,95441.44
2023-03-12T08:33:30.519Z,95443.34
2023-03-12T08:35:59.034Z,95448.69
2023-03-12T08:38:27.874Z,95436.22
2023-03-12T08:40:57.354Z,95440.41
2023-03-12T08:43:25.417Z,95438.97
2023-03-12T08:45:58.084Z,95435.81
2023-03-12T08:48:26.191Z,95435.72
2023-03-12T08:50:56.267Z,95439.25
2023-03-12T08:53:24.307Z,95438.38
2023-03-12T08:55:53.772Z,95435.59
2023-03-12T08:58:21.911Z,95428.19
2023-03-12T09:00:49.979Z,95420.28
2023-03-12T09:03:21.617Z,95417.84
2023-03-12T09:05:49.865Z,95414.09
2023-03-12T09:08:18.071Z,95413.31
2023-03-12T09:10:49.088Z,95406.41
2023-03-12T09:13:17.286Z,95400.78
2023-03-12T09:15:45.336Z,95404.81
2023-03-12T09:18:13.898Z,95405.03
2023-03-12T09:20:44.710Z,95407.09
2023-03-12T09:23:12.800Z,95409.28
2023-03-12T09:25:40.807Z,95410.66
2023-03-12T09:28:09.560Z,95406.41
2023-03-12T09:30:38.085Z,95409.06
2023-03-12T09:33:06.203Z,95394.81
2023-03-12T09:35:34.363Z,95394.16
2023-03-12T09:38:04.124Z,95381.03
2023-03-12T09:40:33.016Z,95377.59
2023-03-12T09:43:02.274Z,95363.06
2023-03-12T09:45:32.390Z,95352.66
2023-03-12T09:48:01.624Z,95354.66
2023-03-12T09:50:31.789Z,95350.72
2023-03-12T09:53:01.392Z,95354.78
2023-03-12T09:55:34.515Z,95362.22
2023-03-12T09:58:02.962Z,95368.81
2023-03-12T10:00:32.391Z,95370.13
2023-03-12T10:03:10.767Z,95371.50
2023-03-12T10:05:39.959Z,95370.16
2023-03-12T10:08:24.909Z,95373.09
2023-03-12T10:11:00.571Z,95375.28
2023-03-12T10:13:45.355Z,95367.44
2023-03-12T10:16:19.049Z,95359.50
2023-03-12T10:18:58.993Z,95354.09
2023-03-12T10:21:28.977Z,95356.16
2023-03-12T10:24:08.468Z,95351.44
2023-03-12T10:26:39.354Z,95354.19
2023-03-12T10:29:12.490Z,95361.81
2023-03-12T10:31:46.427Z,95345.69
2023-03-12T10:34:16.699Z,95341.13
2023-03-12T10:36:44.789Z,95346.31
2023-03-12T10:39:14.924Z,95348.81
2023-03-12T10:41:44.837Z,95360.66
2023-03-12T10:44:17.188Z,95350.56
2023-03-12T10:47:01.576Z,95360.13
2023-03-12T10:49:33.975Z,95366.34
2023-03-12T10:52:05.163Z,95366.91
2023-03-12T10:54:35.304Z,95355.47
2023-03-12T10:57:05.061Z,95367.19
2023-03-12T10:59:34.540Z,95360.59
2023-03-12T11:02:03.223Z,95362.69
2023-03-12T11:04:31.609Z,95364.13
2023-03-12T11:07:24.238Z,95365.97
2023-03-12T11:10:19.293Z,95353.19
2023-03-12T11:13:00.117Z,95359.44
2023-03-12T11:15:29.565Z,95354.25
2023-03-12T11:18:34.739Z,95348.81
2023-03-12T11:21:18.435Z,95346.25
2023-03-12T11:23:48.398Z,95340.16
2023-03-12T11:26:19.506Z,95339.53
2023-03-12T11:28:50.321Z,95339.34
2023-03-12T11:31:23.305Z,95327.00
2023-03-12T11:33:52.937Z,95323.66
2023-03-12T11:36:27.592Z,95324.84
2023-03-12T11:38:58.293Z,95326.28
2023-03-12T11:41:34.318Z,95333.72
2023-03-12T11:44:23.285Z,95320.75
2023-03-12T11:46:58.014Z,95316.09
2023-03-12T11:49:36.451Z,95319.28
2023-03-12T11:52:06.344Z,95327.50
2023-03-12T11:55:00.528Z,95323.94
2023-03-12T11:57:32.282Z,95326.19
2023-03-12T12:00:13.964Z,95324.19
2023-03-12T12:02:55.604Z,95324.88
2023-03-12T12:05:27.311Z,95330.28
2023-03-12T12:08:05.540Z,95330.03
2023-03-12T12:10:38.245Z,95319.47
2023-03-12T12:13:09.697Z,95308.31
2023-03-12T12:15:43.186Z,95308.13
2023-03-12T12:18:21.931Z,95300.06
2023-03-12T12:20:51.727Z,95291.56
2023-03-12T12:23:20.121Z,95291.97
2023-03-12T12:26:05.599Z,95276.72
2023-03-12T12:28:44.327Z,95280.25
2023-03-12T12:31:22.690Z,95269.25
2023-03-12T12:33:57.796Z,95267.81
2023-03-12T12:36:26.413Z,95266.31
2023-03-12T12:38:56.223Z,95270.63
2023-03-12T12:41:26.019Z,95264.75
2023-03-12T12:43:55.032Z,95257.00
2023-03-12T12:46:26.859Z,95253.25
2023-03-12T12:48:55.478Z,95248.50
2023-03-12T12:51:25.874Z,95244.81
2023-03-12T12:53:56.807Z,95241.59
2023-03-12T12:56:27.141Z,95231.56
2023-03-12T12:59:04.909Z,95229.16
2023-03-12T13:01:35.070Z,95230.69
2023-03-12T13:04:11.241Z,95237.59
2023-03-12T13:06:55.905Z,95228.84
2023-03-12T13:09:24.885Z,95235.38
2023-03-12T13:11:53.948Z,95239.03
2023-03-12T13:14:37.797Z,95230.53
2023-03-12T13:17:25.453Z,95223.19
2023-03-12T13:20:01.235Z,95220.03
2023-03-12T13:22:39.238Z,95224.22
2023-03-12T13:25:15.388Z,95214.09
2023-03-12T13:27:43.798Z,95216.28
2023-03-12T13:30:51.704Z,95215.88
2023-03-12T13:33:22.487Z,95213.56
2023-03-12T13:36:07.696Z,95209.34
2023-03-12T13:38:37.166Z,95209.13
2023-03-12T13:41:06.464Z,95205.44
2023-03-12T13:43:43.320Z,95212.81
2023-03-12T13:46:23.370Z,95209.75
2023-03-12T13:48:52.788Z,95209.84
2023-03-12T13:51:21.967Z,95219.44
2023-03-12T13:53:51.021Z,95217.59
2023-03-12T13:56:19.812Z,95222.31
2023-03-12T13:58:50.170Z,95226.75
2023-03-12T14:01:19.671Z,95229.97
2023-03-12T14:03:49.654Z,95232.31
2023-03-12T14:06:21.054Z,95236.47
2023-03-12T14:09:01.120Z,95220.19
2023-03-12T14:11:40.943Z,95216.13
2023-03-12T14:14:26.033Z,95229.66
2023-03-12T14:16:55.061Z,95226.59
2023-03-12T14:19:25.900Z,95227.22
2023-03-12T14:21:55.427Z,95232.84
2023-03-12T14:24:28.620Z,95247.13
2023-03-12T14:26:57.083Z,95237.72
2023-03-12T14:29:27.964Z,95232.81
2023-03-12T14:31:57.878Z,95232.91
2023-03-12T14:34:26.556Z,95237.72
2023-03-12T14:37:00.041Z,95236.25
2023-03-12T14:39:29.984Z,95241.81
2023-03-12T14:42:00.934Z,95234.91
2023-03-12T14:44:29.691Z,95224.34
2023-03-12T14:46:59.535Z,95222.72
2023-03-12T14:49:27.935Z,95220.09
2023-03-12T14:51:56.077Z,95223.53
2023-03-12T14:54:26.304Z,95219.69
2023-03-12T14:56:54.440Z,95219.69
2023-03-12T14:59:28.102Z,95214.63
2023-03-12T15:02:00.126Z,95204.84
2023-03-12T15:04:28.428Z,95206.94
2023-03-12T15:06:57.242Z,95191.66
2023-03-12T15:09:27.295Z,95202.53
2023-03-12T15:11:56.322Z,95214.16
2023-03-12T15:14:24.902Z,95215.44
2023-03-12T15:16:53.010Z,95204.06
2023-03-12T15:19:25.229Z,95200.03
2023-03-12T15:21:54.105Z,95207.72
2023-03-12T15:24:22.210Z,95201.66
2023-03-12T15:26:52.064Z,95211.41
2023-03-12T15:29:26.798Z,95218.53
2023-03-12T15:31:55.831Z,95206.94
2023-03-12T15:34:32.906Z,95205.09
2023-03-12T15:37:01.328Z,95219.56
2023-03-12T15:39:31.296Z,95214.28
2023-03-12T15:42:03.489Z,95216.94
2023-03-12T15:44:44.868Z,95210.03
2023-03-12T15:47:14.273Z,95213.25
2023-03-12T15:49:42.355Z,95206.13
2023-03-12T15:52:29.380Z,95210.94
2023-03-12T15:55:01.690Z,95216.22
2023-03-12T15:57:31.194Z,95218.31
2023-03-12T16:00:24.899Z,95226.81
2023-03-12T16:02:57.375Z,95217.84
2023-03-12T16:05:27.516Z,95223.13
2023-03-12T16:07:55.640Z,95230.25
2023-03-12T16:10:25.622Z,95230.25
2023-03-12T16:12:59.761Z,95231.06
2023-03-12T16:15:30.847Z,95230.78
2023-03-12T16:17:58.888Z,95225.50
2023-03-12T16:20:27.016Z,95225.28
2023-03-12T16:22:55.497Z,95227.22
2023-03-12T16:25:23.683Z,95239.41
2023-03-12T16:27:52.858Z,95244.44
2023-03-12T16:30:25.424Z,95237.56
2023-03-12T16:32:53.587Z,95234.91
2023-03-12T16:35:22.244Z,95240.19
2023-03-12T16:37:50.467Z,95253.19
2023-03-12T16:40:32.478Z,95252.91
2023-03-12T16:43:02.817Z,95265.66
2023-03-12T16:45:32.472Z,95257.75
2023-03-12T16:48:01.996Z,95269.69
2023-03-12T16:50:30.233Z,95276.59
2023-03-12T16:52:59.759Z,95279.47
2023-03-12T16:55:29.837Z,95279.22
2023-03-12T16:57:59.352Z,95271.28
2023-03-12T17:00:37.252Z,95270.25
2023-03-12T17:03:06.287Z,95270.25
2023-03-12T17:05:34.977Z,95271.84
2023-03-12T17:08:03.654Z,95269.19
2023-03-12T17:10:31.786Z,95259.44
2023-03-12T17:12:59.953Z,95271.84
2023-03-12T17:15:30.657Z,95265.50
2023-03-12T17:18:03.398Z,95265.50
2023-03-12T17:20:35.970Z,95285.41
2023-03-12T17:23:04.226Z,95297.00
2023-03-12T17:25:33.203Z,95280.22
2023-03-12T17:28:01.887Z,95295.00
2023-03-12T17:30:30.568Z,95291.03
2023-03-12T17:33:03.483Z,95285.72
2023-03-12T17:35:31.626Z,95287.34
2023-03-12T17:37:59.772Z,95296.88
2023-03-12T17:40:28.000Z,95286.38
2023-03-12T17:42:56.564Z,95278.78
2023-03-12T17:45:24.996Z,95280.63
2023-03-12T17:47:53.048Z,95292.56
2023-03-12T17:50:22.637Z,95281.75
2023-03-12T17:52:50.667Z,95284.94
2023-03-12T17:55:18.876Z,95288.63
2023-03-12T17:57:46.953Z,95291.03
2023-03-12T18:00:15.919Z,95297.22
2023-03-12T18:02:44.049Z,95302.84
2023-03-12T18:05:12.469Z,95308.47
2023-03-12T18:07:41.986Z,95308.53
2023-03-12T18:10:12.060Z,95305.66
2023-03-12T18:12:40.374Z,95316.25
2023-03-12T18:15:09.096Z,95329.53
2023-03-12T18:17:37.183Z,95324.50
2023-03-12T18:20:09.749Z,95325.31
2023-03-12T18:22:38.930Z,95321.88
2023-03-12T18:25:09.768Z,95311.53
2023-03-12T18:27:37.813Z,95318.41
2023-03-12T18:30:08.298Z,95311.75
2023-03-12T18:32:36.403Z,95307.50
2023-03-12T18:35:04.820Z,95301.97
2023-03-12T18:37:33.211Z,95314.72
2023-03-12T18:40:01.343Z,95312.09
2023-03-12T18:42:30.893Z,95302.38
2023-03-12T18:45:00.009Z,95300.53
2023-03-12T18:47:28.207Z,95295.81
2023-03-12T18:49:57.020Z,95298.75
2023-03-12T18:52:25.043Z,95294.03
2023-03-12T18:54:53.131Z,95297.31
2023-03-12T18:57:21.199Z,95304.31
2023-03-12T18:59:50.680Z,95305.69
2023-03-12T19:02:18.791Z,95310.56
2023-03-12T19:04:47.141Z,95305.34
2023-03-12T19:07:17.898Z,95310.06
2023-03-12T19:09:46.113Z,95302.38
2023-03-12T19:12:14.231Z,95304.53
2023-03-12T19:14:42.343Z,95304.88
2023-03-12T19:17:11.810Z,95300.38
2023-03-12T19:19:40.441Z,95310.16
2023-03-12T19:22:08.674Z,95304.28
2023-03-12T19:24:36.810Z,95296.69
2023-03-12T19:27:05.091Z,95296.97
2023-03-12T19:29:33.146Z,95294.84
2023-03-12T19:32:01.263Z,95301.75
2023-03-12T19:34:31.158Z,95306.88
2023-03-12T19:36:59.284Z,95309.03
2023-03-12T19:39:27.539Z,95311.75
2023-03-12T19:41:55.666Z,95310.47
2023-03-12T19:44:23.685Z,95317.59
2023-03-12T19:46:51.753Z,95315.75
2023-03-12T19:49:20.329Z,95321.13
2023-03-12T19:51:49.793Z,95313.72
2023-03-12T19:54:17.836Z,95314.84
2023-03-12T19:56:45.879Z,95320.69
2023-03-12T19:59:13.927Z,95327.31
2023-03-12T20:01:42.848Z,95310.59
2023-03-12T20:04:11.538Z,95327.03
2023-03-12T20:06:39.663Z,95327.31
2023-03-12T20:09:09.112Z,95322.31
2023-03-12T20:11:37.148Z,95328.41
2023-03-12T20:14:05.669Z,95325.69
2023-03-12T20:16:33.860Z,95323.03
2023-03-12T20:19:01.961Z,95323.28
2023-03-12T20:21:30.733Z,95322.31
2023-03-12T20:23:58.964Z,95326.56
2023-03-12T20:26:28.550Z,95322.63
2023-03-12T20:28:57.073Z,95320.53
2023-03-12T20:31:25.223Z,95329.91
2023-03-12T20:33:53.282Z,95326.78
2023-03-12T20:36:21.326Z,95327.31
2023-03-12T20:38:49.637Z,95329.47
2023-03-12T20:41:18.038Z,95326.84
2023-03-12T20:43:47.819Z,95330.28
2023-03-12T20:46:15.895Z,95334.78
2023-03-12T20:48:44.014Z,95337.44
2023-03-12T20:51:12.157Z,95326.28
2023-03-12T20:53:40.312Z,95329.16
2023-03-12T20:56:09.264Z,95336.56
2023-03-12T20:58:37.329Z,95345.38
2023-03-12T21:01:06.995Z,95340.09
2023-03-12T21:03:35.244Z,95342.53
2023-03-12T21:06:03.714Z,95341.03
2023-03-12T21:08:32.932Z,95344.03
2023-03-12T21:11:01.444Z,95344.84
2023-03-12T21:13:30.916Z,95344.38
2023-03-12T21:15:59.056Z,95339.59
2023-03-12T21:18:29.104Z,95331.41
2023-03-12T21:21:02.363Z,95329.06
2023-03-12T21:23:30.716Z,95330.06
2023-03-12T21:26:00.818Z,95324.81
2023-03-12T21:28:28.882Z,95316.13
2023-03-12T21:30:57.055Z,95310.81
2023-03-12T21:33:25.243Z,95310.03
2023-03-12T21:35:54.724Z,95311.06
2023-03-12T21:38:22.847Z,95303.13
2023-03-12T21:40:50.966Z,95302.91
2023-03-12T21:43:19.028Z,95297.13
2023-03-12T21:45:47.445Z,95295.81
2023-03-12T21:48:15.499Z,95297.69
2023-03-12T21:50:43.855Z,95293.22
2023-03-12T21:53:23.290Z,95283.97
2023-03-12T21:55:57.844Z,95281.84
2023-03-12T21:58:25.928Z,95283.69
2023-03-12T22:00:54.055Z,95272.84
2023-03-12T22:03:22.059Z,95264.16
2023-03-12T22:05:53.253Z,95266.84
2023-03-12T22:08:22.722Z,95273.47
2023-03-12T22:10:50.794Z,95255.97
2023-03-12T22:13:18.865Z,95265.25
2023-03-12T22:15:48.099Z,95273.81
2023-03-12T22:18:16.632Z,95266.34
2023-03-12T22:20:44.861Z,95273.03
2023-03-12T22:23:13.147Z,95270.66
2023-03-12T22:25:42.560Z,95266.38
2023-03-12T22:28:10.645Z,95269.56
2023-03-12T22:30:38.738Z,95267.97
2023-03-12T22:33:07.350Z,95273.50
2023-03-12T22:35:35.526Z,95276.72
2023-03-12T22:38:03.625Z,95283.88
2023-03-12T22:40:31.961Z,95279.66
2023-03-12T22:43:01.423Z,95270.91
2023-03-12T22:45:29.489Z,95271.41
2023-03-12T22:47:57.925Z,95263.22
2023-03-12T22:50:25.972Z,95266.69
2023-03-12T22:52:54.058Z,95260.59
2023-03-12T22:55:22.112Z,95257.94
2023-03-12T22:57:50.175Z,95256.56
2023-03-12T23:00:22.935Z,95256.84
2023-03-12T23:02:51.196Z,95252.94
2023-03-12T23:05:19.338Z,95249.72
2023-03-12T23:07:47.544Z,95250.28
2023-03-12T23:10:15.574Z,95255.34
2023-03-12T23:12:43.624Z,95252.13
2023-03-12T23:15:12.313Z,95257.38
2023-03-12T23:17:41.817Z,95247.03
2023-03-12T23:20:11.845Z,95243.31
2023-03-12T23:22:39.997Z,95240.38
2023-03-12T23:25:08.645Z,95243.59
2023-03-12T23:27:37.022Z,95231.38
2023-03-12T23:30:06.100Z,95238.53
2023-03-12T23:32:34.234Z,95239.34
2023-03-12T23:35:03.628Z,95242.47
2023-03-12T23:37:31.865Z,95239.03
2023-03-12T23:40:00.455Z,95234.53
2023-03-12T23:42:28.577Z,95231.88
2023-03-12T23:44:56.614Z,95236.13
2023-03-12T23:47:24.780Z,95242.22
2023-03-12T23:49:52.964Z,95239.34
2023-03-12T23:52:22.444Z,95232.44
2023-03-12T23:54:50.893Z,95228.53
2023-03-12T23:57:18.947Z,95226.97
2023-03-12T23:59:47.058Z,95230.41
